Crater Lake, OR

12:00 AM PDT on September 23, 2014 (GMT -0700)
Roseburg Regional | Change Station
CLOSE
Current Station
Airport
Location: Roseburg,
Elevation: 525 ft
Nearby Weather Stations

Elev 525 ft 43.24 °N, 123.36 °W | Updated 1 hour ago

Partly Cloudy
Partly Cloudy
62 °F
Feels Like 62 °F
N
0
Wind Variable Wind from North

Today
High -- | Low -- °F
--% Chance of Precip.
Yesterday
High -- | Low -- °F
Precip. -- in
6:57 AM 7:03 PM
Waning Crescent, 1% visible
Pressure 29.94 in
Visibility 10.0 miles
Clouds Clear
Dew Point 54 °F
Humidity 75%
Rainfall 0.00 in
Snow Depth Not available.
UV 0 out of 12
Pollen 4.00 out of 12
Air Quality Not available.
Flu Activity Not available.
METAR KRBG 230553Z AUTO 00000KT 10SM CLR 17/12 A2994 RMK AO2 SLP136 T01670122 10228 20161 50002

More Conditions Fewer Conditions

Pressure 29.94 in
Visibility 10.0 miles
Clouds Clear
Dew Point 54 °F
Humidity 75%
Rainfall 0.00 in
Snow Depth Not available.
UV 0 out of 12
Pollen 4.00 out of 12
Air Quality Not available.
Flu Activity Not available.
METAR KRBG 230553Z AUTO 00000KT 10SM CLR 17/12 A2994 RMK AO2 SLP136 T01670122 10228 20161 50002

More Conditions Fewer Conditions

10-Day Weather Forecast

Almanac

Astronomy

Sep. 23, 2014 Rise Set
Actual Time 6:57 AM PDT 7:03 PM PDT
Civil Twilight 6:28 AM PDT 7:32 PM PDT
Nautical Twilight 5:55 AM PDT 8:05 PM PDT
Astronomical Twilight 5:21 AM PDT 8:38 PM PDT
Moon 6:26 AM PDT 6:45 PM PDT
Length of Visible Light 13h 03m
Length of Day
12h 06m
Tomorrow will be 2m 54s shorter.
Waning Crescent, 1% of the Moon is Illuminated
Today
Waning Crescent
Sep 24
New
Oct 1
First Quarter
Oct 8
Full
Oct 15
Last Quarter

Today's Extremes

State Highs State Lows

Community

WunderPhotos

Upload Photos

1,755,608 photos uploaded!

Nearby

Snow Depth

Station Depth Elevation
Santiam Junction 0 in 3750 ft
Arbuckle Mountain 0 in 5400 ft
Billie Creek Divide 0 in 5300 ft
Roaring River 0 in 4900 ft
Snow Mountain 0 in 6220 ft

Earthquake Activity

City Distance Mag. Time & Date
No recent earthquake activity has been reported nearby.
Minimum magnitude displayed is 2.5.

Coastal Water Temperatures

Place Temperature
No Stations Reporting

Nearby Weather Stations